Stowe, Vermont
Current Conditions -  °F | °C
As of 9:10 AM on Sunday 25 Jan 2015 (Local Time) from KMVL Reporting Station
Light Snow Light Snow  
Wind Chill: -3°   Ceiling: 1600
Heat Index: 13°   Visibility: 0.75mi
Dew Point:   Wind: 15mph
Humidity: 71%   Direction: 320°NW
Pressure: 29.64"   Gusts: 29mph
Location:  44.47°N, 72.68°W
Report Text: KMVL 251410Z AUTO 32013G25KT 3/4SM -SN VV016 M11/M15 A2964 RMK AO2 PK WND 35027/1400 P0000 T11061150 TSNO
Loading
Personal Weather Stations






























Interactive Weather Map New forecast layout! Learn more

10-Day Weather Forecast

Advertisements
Track Severe Weather on mobile